Time;durP1;ratioP1;P1;durP2;ratioP2;P2;SDS_P1;SDS_P2;PMS_P1;PMS_P2;Temp;Humidity;BMP_temperature;BMP_pressure;BME280_temperature;BME280_humidity;BME280_pressure;Samples;Min_cycle;Max_cycle;Signal;HPM_P1;HPM_P2
2021/03/14 00:00:09;;;;;;;2.70;2.50;;;;;;;7.75;57.38;98675.59;122577;1109;104379;-80
2021/03/14 00:02:36;;;;;;;2.90;2.60;;;;;;;7.71;57.87;98679.30;122703;1108;104411;-80
2021/03/14 00:05:04;;;;;;;2.50;2.30;;;;;;;7.66;58.01;98681.27;122636;1106;104572;-80
2021/03/14 00:07:31;;;;;;;2.83;2.33;;;;;;;7.63;57.94;98684.91;122910;1105;104767;-83
2021/03/14 00:09:58;;;;;;;3.20;2.37;;;;;;;7.57;59.04;98687.84;123064;1105;104319;-81
2021/03/14 00:12:24;;;;;;;4.87;2.90;;;;;;;7.57;58.49;98698.44;122725;1105;104326;-79
2021/03/14 00:14:51;;;;;;;4.80;3.15;;;;;;;7.56;58.54;98688.76;122647;1105;104425;-79
2021/03/14 00:17:20;;;;;;;5.97;2.37;;;;;;;7.53;59.33;98687.09;122786;1105;104345;-78
2021/03/14 00:19:47;;;;;;;3.17;2.50;;;;;;;7.51;59.39;98688.94;123018;1105;104364;-80
2021/03/14 00:22:13;;;;;;;3.63;2.43;;;;;;;7.48;59.37;98698.81;123136;1105;104287;-81
2021/03/14 00:24:40;;;;;;;5.55;3.90;;;;;;;7.43;59.70;98703.44;123198;1105;104335;-83
2021/03/14 00:27:07;;;;;;;3.27;2.72;;;;;;;7.38;60.69;98693.02;123193;1105;104392;-83
2021/03/14 00:29:34;;;;;;;4.45;3.00;;;;;;;7.33;60.92;98695.87;123082;1105;104226;-81
2021/03/14 00:32:02;;;;;;;6.03;3.13;;;;;;;7.32;60.34;98694.13;123144;1105;104906;-81
2021/03/14 00:34:44;;;;;;;2.37;2.17;;;;;;;7.33;61.30;98687.92;122899;1109;104703;-79
2021/03/14 00:37:11;;;;;;;4.42;2.67;;;;;;;7.31;60.46;98695.05;122850;1109;104313;-78
2021/03/14 00:39:38;;;;;;;3.87;2.72;;;;;;;7.31;60.53;98692.41;122822;1109;105008;-81
2021/03/14 00:42:05;;;;;;;3.08;2.20;;;;;;;7.27;60.93;98698.75;122980;1109;104438;-80
2021/03/14 00:44:32;;;;;;;3.80;3.23;;;;;;;7.26;61.37;98706.76;123098;1109;104471;-79
2021/03/14 00:46:59;;;;;;;2.85;2.65;;;;;;;7.22;61.34;98706.01;122951;1109;104402;-79
2021/03/14 00:49:26;;;;;;;4.00;2.50;;;;;;;7.15;61.59;98712.48;122886;1109;104467;-78
2021/03/14 00:51:52;;;;;;;3.30;3.00;;;;;;;7.16;61.84;98714.22;122771;1109;104507;-79
2021/03/14 00:54:19;;;;;;;8.05;3.77;;;;;;;7.12;61.53;98707.33;122892;1109;104993;-80
2021/03/14 00:56:46;;;;;;;3.70;3.20;;;;;;;7.11;61.79;98717.03;122844;1109;104639;-79
2021/03/14 00:59:13;;;;;;;4.30;3.90;;;;;;;7.10;62.01;98715.30;122931;1109;104418;-81
2021/03/14 01:01:54;;;;;;;3.83;3.47;;;;;;;7.07;62.19;98710.13;122771;1108;104411;-79
2021/03/14 01:04:35;;;;;;;5.30;4.30;;;;;;;7.02;62.30;98704.16;122581;1109;104848;-79
2021/03/14 01:07:02;;;;;;;2.87;2.67;;;;;;;7.00;62.03;98713.95;122662;1109;104472;-85
2021/03/14 01:09:28;;;;;;;2.65;2.45;;;;;;;7.00;62.13;98716.61;122912;1109;105075;-79
2021/03/14 01:11:54;;;;;;;2.53;2.33;;;;;;;6.95;62.53;98718.56;123062;1109;104411;-78
2021/03/14 01:14:21;;;;;;;3.20;2.80;;;;;;;6.95;62.44;98711.47;123195;1105;104664;-79
2021/03/14 01:16:48;;;;;;;2.90;2.62;;;;;;;6.94;62.74;98717.68;123158;1105;105187;-80
2021/03/14 01:19:14;;;;;;;3.47;2.70;;;;;;;6.94;62.87;98711.53;123115;1105;104360;-79
2021/03/14 01:21:41;;;;;;;2.87;2.67;;;;;;;6.94;62.62;98716.83;123177;1105;104389;-79
2021/03/14 01:24:08;;;;;;;2.50;2.30;;;;;;;6.95;63.17;98714.12;123158;1106;104287;-79
2021/03/14 01:26:34;;;;;;;2.83;2.43;;;;;;;6.94;63.02;98708.89;123203;1106;104354;-82
2021/03/14 01:29:01;;;;;;;3.40;3.10;;;;;;;6.91;63.47;98693.99;123165;1105;104233;-80
2021/03/14 01:31:42;;;;;;;3.77;2.60;;;;;;;6.83;63.45;98696.92;122975;1109;104556;-81
2021/03/14 01:34:10;;;;;;;3.30;3.00;;;;;;;6.80;63.58;98702.34;123022;1109;105105;-80
2021/03/14 01:36:39;;;;;;;3.90;2.70;;;;;;;6.74;63.86;98691.98;122940;1106;104412;-79
2021/03/14 01:39:06;;;;;;;3.58;2.98;;;;;;;6.75;63.61;98692.88;122927;1106;104986;-80
2021/03/14 01:41:47;;;;;;;2.93;2.67;;;;;;;6.69;63.96;98689.53;122828;1109;104440;-80
2021/03/14 01:44:13;;;;;;;3.80;3.40;;;;;;;6.66;63.99;98684.38;123004;1108;104806;-80
2021/03/14 01:46:40;;;;;;;5.80;3.80;;;;;;;6.63;63.66;98683.61;122927;1109;104531;-79
2021/03/14 01:49:15;;;;;;;5.25;3.67;;;;;;;6.61;64.40;98686.33;122859;1108;104418;-79
2021/03/14 01:51:42;;;;;;;3.83;2.65;;;;;;;6.52;64.18;98670.80;122858;1109;104313;-81
2021/03/14 01:54:10;;;;;;;3.27;2.97;;;;;;;6.56;64.09;98671.52;122912;1108;104559;-80
2021/03/14 01:56:37;;;;;;;3.50;2.80;;;;;;;6.56;63.86;98668.88;122726;1109;104414;-80
2021/03/14 01:59:18;;;;;;;5.27;3.40;;;;;;;6.51;64.15;98675.20;122818;1112;104816;-81
2021/03/14 02:01:45;;;;;;;4.63;3.73;;;;;;;6.50;63.80;98673.51;122650;1112;104499;-79
2021/03/14 02:04:12;;;;;;;3.42;3.10;;;;;;;6.48;63.80;98664.75;122801;1109;104444;-80
2021/03/14 02:06:38;;;;;;;5.30;3.00;;;;;;;6.44;63.86;98673.72;122946;1108;104670;-79
2021/03/14 02:09:05;;;;;;;3.33;3.13;;;;;;;6.45;63.68;98666.64;123031;1108;104335;-82
2021/03/14 02:11:34;;;;;;;3.83;3.45;;;;;;;6.40;63.77;98679.17;122897;1109;104623;-80
2021/03/14 02:14:02;;;;;;;3.50;2.73;;;;;;;6.36;63.84;98675.80;122837;1106;104358;-79
2021/03/14 02:16:33;;;;;;;3.50;3.20;;;;;;;6.35;63.91;98679.35;122903;1109;104299;-80
2021/03/14 02:19:03;;;;;;;4.13;3.33;;;;;;;6.29;64.04;98676.92;122945;1105;104750;-81
2021/03/14 02:21:32;;;;;;;3.00;2.70;;;;;;;6.25;64.46;98677.95;123259;1105;104629;-80
2021/03/14 02:24:14;;;;;;;5.37;3.15;;;;;;;6.22;63.95;98678.08;123283;1105;104246;-79
2021/03/14 02:26:44;;;;;;;3.00;2.80;;;;;;;6.17;64.17;98680.88;123355;1105;104223;-79
2021/03/14 02:29:20;;;;;;;4.50;3.10;;;;;;;6.12;64.37;98662.55;123257;1105;104444;-79
2021/03/14 02:31:50;;;;;;;10.20;3.60;;;;;;;6.12;64.12;98672.27;123296;1105;104316;-78
2021/03/14 02:34:30;;;;;;;4.00;2.75;;;;;;;6.12;64.43;98674.92;123347;1105;104239;-78
2021/03/14 02:36:57;;;;;;;4.07;3.30;;;;;;;6.08;64.03;98682.09;123142;1105;104319;-80
2021/03/14 02:39:26;;;;;;;4.40;2.87;;;;;;;6.08;64.41;98691.77;123257;1105;104334;-79
2021/03/14 02:42:00;;;;;;;3.37;3.00;;;;;;;6.06;63.96;98694.48;123338;1105;104287;-79
2021/03/14 02:44:46;;;;;;;4.73;3.03;;;;;;;6.07;64.03;98690.07;123014;1105;104336;-80
2021/03/14 02:47:12;;;;;;;4.13;3.43;;;;;;;5.96;64.10;98687.78;123222;1105;104283;-83
2021/03/14 02:49:57;;;;;;;5.72;3.00;;;;;;;5.96;64.34;98688.63;123173;1106;104979;-79
2021/03/14 02:52:25;;;;;;;3.47;2.90;;;;;;;5.91;64.53;98687.92;123180;1105;104712;-79
2021/03/14 02:54:51;;;;;;;5.45;2.92;;;;;;;5.89;64.64;98689.77;123172;1105;104371;-79
2021/03/14 02:57:20;;;;;;;2.70;2.50;;;;;;;5.85;64.61;98688.13;123311;1105;104233;-83
2021/03/14 02:59:51;;;;;;;3.45;3.17;;;;;;;5.80;64.95;98690.09;123114;1105;104617;-79
2021/03/14 03:02:19;;;;;;;5.42;2.92;;;;;;;5.78;65.01;98690.12;123233;1106;104393;-79
2021/03/14 03:04:50;;;;;;;5.50;3.00;;;;;;;5.74;64.92;98691.14;123196;1105;104270;-80
2021/03/14 03:07:19;;;;;;;4.97;3.80;;;;;;;5.71;65.01;98691.26;123189;1105;104267;-84
2021/03/14 03:09:48;;;;;;;4.93;3.60;;;;;;;5.69;65.03;98701.00;123202;1105;104342;-79
2021/03/14 03:12:16;;;;;;;5.17;2.87;;;;;;;5.67;65.27;98705.48;123064;1105;104728;-79
2021/03/14 03:14:45;;;;;;;2.83;2.33;;;;;;;5.63;65.08;98706.50;123039;1105;104319;-80
2021/03/14 03:17:26;;;;;;;4.78;3.22;;;;;;;5.57;65.45;98707.58;122541;1109;104405;-78
2021/03/14 03:19:54;;;;;;;5.75;3.20;;;;;;;5.53;65.61;98713.85;122521;1109;104459;-80
2021/03/14 03:22:22;;;;;;;3.43;2.93;;;;;;;5.49;65.46;98715.75;122475;1108;104466;-80
2021/03/14 03:24:52;;;;;;;4.10;3.62;;;;;;;5.51;65.55;98708.62;122531;1108;104278;-79
2021/03/14 03:27:19;;;;;;;3.75;3.17;;;;;;;5.54;65.52;98718.23;122482;1109;104534;-80
2021/03/14 03:29:46;;;;;;;3.10;2.90;;;;;;;5.56;65.43;98720.81;122497;1109;104981;-80
2021/03/14 03:32:13;;;;;;;2.67;2.47;;;;;;;5.56;65.05;98720.81;122756;1109;104398;-78
2021/03/14 03:34:54;;;;;;;3.17;2.98;;;;;;;5.55;65.12;98725.23;122651;1109;104443;-79
2021/03/14 03:37:22;;;;;;;3.20;2.90;;;;;;;5.56;65.25;98720.81;122687;1109;104419;-79
2021/03/14 03:40:05;;;;;;;3.13;2.83;;;;;;;5.58;65.04;98726.92;122388;1108;104862;-81
2021/03/14 03:42:36;;;;;;;4.65;3.85;;;;;;;5.58;65.18;98740.12;122608;1107;104342;-79
2021/03/14 03:45:06;;;;;;;4.43;3.17;;;;;;;5.58;64.91;98742.77;122645;1109;104424;-79
2021/03/14 03:47:34;;;;;;;3.40;2.97;;;;;;;5.57;65.12;98738.39;122795;1109;104496;-78
2021/03/14 03:50:03;;;;;;;4.33;3.53;;;;;;;5.51;65.03;98739.46;122665;1107;104399;-78
2021/03/14 03:52:30;;;;;;;4.20;3.85;;;;;;;5.52;65.00;98734.13;122748;1109;104583;-80
2021/03/14 03:54:57;;;;;;;4.20;3.10;;;;;;;5.49;65.11;98734.23;122942;1105;104338;-78
2021/03/14 03:57:24;;;;;;;3.10;2.80;;;;;;;5.47;64.87;98751.88;123182;1105;104451;-80
2021/03/14 04:00:00;;;;;;;3.13;2.83;;;;;;;5.45;65.19;98743.17;123131;1105;104383;-81
2021/03/14 04:02:28;;;;;;;5.87;3.08;;;;;;;5.45;65.05;98747.56;123080;1105;104229;-80
2021/03/14 04:05:04;;;;;;;2.95;2.65;;;;;;;5.41;65.13;98749.46;123165;1106;104226;-80
2021/03/14 04:07:35;;;;;;;4.00;2.72;;;;;;;5.43;65.25;98752.05;122998;1105;104306;-79
2021/03/14 04:10:04;;;;;;;3.30;2.90;;;;;;;5.43;65.14;98742.34;123112;1105;104242;-79
2021/03/14 04:12:32;;;;;;;2.40;2.20;;;;;;;5.42;65.01;98740.61;123111;1105;104328;-80
2021/03/14 04:14:59;;;;;;;3.15;2.90;;;;;;;5.43;65.14;98746.77;123072;1105;104709;-79
2021/03/14 04:17:26;;;;;;;3.77;3.40;;;;;;;5.42;64.80;98740.61;123177;1105;105124;-81
2021/03/14 04:19:54;;;;;;;3.20;2.90;;;;;;;5.40;65.03;98745.09;123202;1105;104347;-82
2021/03/14 04:22:22;;;;;;;4.30;3.10;;;;;;;5.42;64.99;98745.89;123128;1105;104499;-80
2021/03/14 04:24:50;;;;;;;3.50;3.20;;;;;;;5.44;64.65;98741.44;123206;1105;104335;-79
2021/03/14 04:27:19;;;;;;;2.77;2.50;;;;;;;5.47;64.90;98743.97;123246;1106;104277;-80
2021/03/14 04:29:46;;;;;;;6.13;3.10;;;;;;;5.48;64.62;98737.78;123245;1105;104263;-80
2021/03/14 04:32:12;;;;;;;5.00;3.27;;;;;;;5.48;64.60;98734.28;123219;1106;104370;-80
2021/03/14 04:34:41;;;;;;;16.90;3.50;;;;;;;5.46;64.52;98731.67;123182;1105;104325;-82
2021/03/14 04:37:08;;;;;;;7.25;3.60;;;;;;;5.49;64.68;98735.98;123124;1105;104363;-79
2021/03/14 04:39:34;;;;;;;12.57;3.67;;;;;;;5.51;64.25;98735.03;123151;1105;104377;-80
2021/03/14 04:42:01;;;;;;;4.13;3.83;;;;;;;5.54;64.25;98736.70;123183;1105;104300;-81
2021/03/14 04:44:29;;;;;;;3.40;3.10;;;;;;;5.53;64.44;98733.22;123084;1106;104351;-79
2021/03/14 04:47:10;;;;;;;7.03;3.90;;;;;;;5.48;64.41;98732.50;123163;1105;104290;-85
2021/03/14 04:49:37;;;;;;;4.10;3.70;;;;;;;5.44;64.25;98730.88;123203;1105;104399;-80
2021/03/14 04:52:19;;;;;;;2.92;2.70;;;;;;;5.42;64.52;98739.75;123053;1105;104309;-81
2021/03/14 04:54:50;;;;;;;4.15;3.85;;;;;;;5.42;64.43;98739.75;123206;1104;104367;-83
2021/03/14 04:57:19;;;;;;;4.03;3.50;;;;;;;5.38;64.22;98733.70;123255;1105;104597;-80
2021/03/14 05:00:05;;;;;;;3.12;2.83;;;;;;;5.36;64.30;98732.91;123167;1105;104347;-79
2021/03/14 05:02:33;;;;;;;4.25;3.20;;;;;;;5.33;64.35;98733.86;123202;1105;104708;-80
2021/03/14 05:05:14;;;;;;;4.58;3.42;;;;;;;5.32;64.62;98736.55;123010;1109;104898;-80
2021/03/14 05:07:43;;;;;;;3.77;3.40;;;;;;;5.33;64.43;98725.06;123006;1107;104149;-79
2021/03/14 05:10:19;;;;;;;4.47;3.40;;;;;;;5.30;64.32;98726.02;123085;1109;104323;-79
2021/03/14 05:12:55;;;;;;;3.20;2.90;;;;;;;5.28;64.28;98732.30;122671;1109;104347;-78
2021/03/14 05:15:50;;;;;;;3.50;3.20;;;;;;;5.27;64.39;98726.13;122841;1109;104542;-79
2021/03/14 05:18:18;;;;;;;5.30;3.70;;;;;;;5.26;64.51;98728.82;123091;1109;104341;-79
2021/03/14 05:20:45;;;;;;;6.75;3.70;;;;;;;5.23;64.66;98735.06;123049;1109;104450;-80
2021/03/14 05:23:12;;;;;;;2.83;2.63;;;;;;;5.26;64.58;98732.31;123088;1106;104616;-79
2021/03/14 05:25:42;;;;;;;3.40;3.10;;;;;;;5.24;64.57;98747.34;122984;1109;104437;-78
2021/03/14 05:28:09;;;;;;;4.05;3.75;;;;;;;5.24;64.42;98739.43;123131;1107;104389;-80
2021/03/14 05:30:36;;;;;;;3.22;2.98;;;;;;;5.24;64.49;98730.63;122995;1108;104418;-79
2021/03/14 05:33:10;;;;;;;3.60;3.30;;;;;;;5.21;64.90;98734.23;122982;1109;104248;-80
2021/03/14 05:35:38;;;;;;;3.23;2.93;;;;;;;5.18;64.92;98729.05;123005;1109;105415;-79
2021/03/14 05:38:04;;;;;;;4.73;3.77;;;;;;;5.18;64.98;98724.66;122930;1109;104294;-80
2021/03/14 05:40:31;;;;;;;4.15;3.25;;;;;;;5.18;64.72;98731.70;122983;1109;105339;-82
2021/03/14 05:42:59;;;;;;;4.60;4.12;;;;;;;5.16;65.20;98731.75;123041;1106;104264;-81
2021/03/14 05:45:26;;;;;;;4.87;3.33;;;;;;;5.17;65.21;98733.48;122921;1105;104306;-81
2021/03/14 05:47:54;;;;;;;3.75;3.45;;;;;;;5.17;65.29;98743.16;122894;1105;104348;-79
2021/03/14 05:50:22;;;;;;;3.25;3.05;;;;;;;5.14;65.18;98745.90;122910;1105;104348;-80
2021/03/14 05:52:50;;;;;;;4.90;4.50;;;;;;;5.14;65.50;98746.75;122920;1106;104226;-79
2021/03/14 05:55:22;;;;;;;3.60;3.10;;;;;;;5.13;65.24;98739.77;123132;1105;104328;-80
2021/03/14 05:58:09;;;;;;;4.30;3.80;;;;;;;5.16;65.34;98752.86;123141;1105;104252;-79
2021/03/14 06:00:36;;;;;;;4.90;4.50;;;;;;;5.16;65.63;98759.92;122935;1109;105014;-81
2021/03/14 06:03:02;;;;;;;5.33;4.57;;;;;;;5.14;65.68;98759.95;122952;1109;104335;-79
2021/03/14 06:05:30;;;;;;;6.00;4.97;;;;;;;5.17;65.71;98751.95;122948;1106;104367;-80
2021/03/14 06:07:58;;;;;;;5.70;4.62;;;;;;;5.21;65.55;98757.13;123168;1105;104625;-80
2021/03/14 06:10:25;;;;;;;5.08;4.33;;;;;;;5.25;65.40;98753.48;123142;1105;104354;-80
2021/03/14 06:12:51;;;;;;;4.90;3.58;;;;;;;5.26;65.52;98750.79;123107;1105;104432;-80
2021/03/14 06:15:18;;;;;;;6.47;4.40;;;;;;;5.26;65.75;98742.87;123244;1105;104663;-79
2021/03/14 06:17:46;;;;;;;3.87;3.57;;;;;;;5.23;65.67;98739.48;123076;1105;104386;-79
2021/03/14 06:20:32;;;;;;;4.23;3.20;;;;;;;5.24;65.80;98733.27;123236;1105;104597;-80
2021/03/14 06:23:13;;;;;;;8.07;3.77;;;;;;;5.29;65.99;98749.83;123191;1105;104402;-79
2021/03/14 06:25:42;;;;;;;4.30;4.00;;;;;;;5.26;66.12;98734.95;123281;1105;104309;-79
2021/03/14 06:28:37;;;;;;;6.97;5.15;;;;;;;5.29;65.91;98737.52;123014;1108;105030;-80
2021/03/14 06:31:30;;;;;;;6.10;4.10;;;;;;;5.30;65.42;98741.86;123000;1109;104306;-79
2021/03/14 06:33:56;;;;;;;6.78;4.55;;;;;;;5.37;65.64;98747.80;122994;1109;104475;-79
2021/03/14 06:36:23;;;;;;;8.43;5.10;;;;;;;5.44;65.71;98749.36;122875;1109;104290;-80
2021/03/14 06:38:50;;;;;;;6.47;4.97;;;;;;;5.48;65.40;98758.91;122939;1109;104783;-79
2021/03/14 06:41:18;;;;;;;8.33;6.78;;;;;;;5.53;65.69;98761.38;122977;1109;104892;-78
2021/03/14 06:43:50;;;;;;;6.20;5.60;;;;;;;5.61;65.39;98762.02;122989;1109;104344;-79
2021/03/14 06:46:19;;;;;;;3.80;3.47;;;;;;;5.67;64.55;98761.80;122953;1109;104505;-78
2021/03/14 06:48:47;;;;;;;4.92;3.95;;;;;;;5.76;64.68;98770.33;122853;1109;104368;-78
2021/03/14 06:51:30;;;;;;;4.67;3.37;;;;;;;5.80;64.28;98775.48;122854;1109;104441;-81
2021/03/14 06:54:23;;;;;;;4.43;3.37;;;;;;;5.85;63.95;98778.84;122866;1107;104501;-79
2021/03/14 06:57:09;;;;;;;5.63;4.60;;;;;;;5.88;64.26;98787.55;122904;1109;104236;-77
2021/03/14 06:59:48;;;;;;;4.27;3.87;;;;;;;5.95;63.77;98789.09;122969;1109;104383;-80
2021/03/14 07:02:21;;;;;;;5.70;4.53;;;;;;;5.97;63.44;98777.56;123037;1109;105101;-78
2021/03/14 07:04:53;;;;;;;6.08;4.17;;;;;;;5.97;63.33;98758.19;123021;1109;104357;-78
2021/03/14 07:07:28;;;;;;;4.40;4.08;;;;;;;5.99;63.19;98769.61;123195;1105;104373;-79
2021/03/14 07:10:00;;;;;;;4.40;3.53;;;;;;;6.11;62.66;98776.26;123259;1105;104306;-80
2021/03/14 07:12:36;;;;;;;8.37;4.43;;;;;;;6.22;62.81;98770.59;123096;1105;104236;-79
2021/03/14 07:15:21;;;;;;;5.77;4.53;;;;;;;6.26;62.35;98759.00;123151;1105;104438;-78
2021/03/14 07:18:07;;;;;;;5.23;4.03;;;;;;;6.34;62.11;98763.11;123100;1105;104306;-80
2021/03/14 07:20:48;;;;;;;4.30;3.90;;;;;;;6.43;61.27;98761.05;122825;1108;104338;-79
2021/03/14 07:23:33;;;;;;;4.33;3.92;;;;;;;6.48;61.04;98770.53;122873;1109;104517;-79
2021/03/14 07:26:42;;;;;;;4.62;3.27;;;;;;;6.54;60.22;98772.09;122969;1105;104331;-77
2021/03/14 07:29:29;;;;;;;6.20;3.77;;;;;;;6.59;61.01;98777.23;123290;1105;104380;-80
2021/03/14 07:31:58;;;;;;;4.80;3.35;;;;;;;6.66;60.83;98757.56;123201;1105;104200;-79
2021/03/14 07:34:25;;;;;;;3.58;3.27;;;;;;;6.76;60.26;98766.00;123106;1105;104319;-80
2021/03/14 07:36:53;;;;;;;4.03;3.63;;;;;;;6.84;59.53;98766.61;123087;1105;104261;-79
2021/03/14 07:39:34;;;;;;;4.17;3.43;;;;;;;6.97;59.21;98759.05;123076;1105;104352;-82
2021/03/14 07:42:02;;;;;;;4.70;3.93;;;;;;;7.05;58.33;98757.00;123074;1105;104724;-81
2021/03/14 07:44:28;;;;;;;4.83;3.57;;;;;;;7.13;58.15;98767.27;123130;1105;104441;-79
2021/03/14 07:46:56;;;;;;;5.22;3.77;;;;;;;7.22;58.33;98772.20;123068;1106;104332;-83
2021/03/14 07:49:27;;;;;;;3.10;2.90;;;;;;;7.30;57.26;98769.27;123243;1105;104309;-80
2021/03/14 07:51:59;;;;;;;6.53;4.12;;;;;;;7.34;57.62;98768.22;123055;1105;104309;-80
2021/03/14 07:54:29;;;;;;;4.80;4.40;;;;;;;7.38;57.26;98761.02;123104;1105;104718;-81
2021/03/14 07:57:00;;;;;;;4.20;3.83;;;;;;;7.43;56.12;98772.30;123145;1105;104322;-80
2021/03/14 07:59:31;;;;;;;4.08;3.58;;;;;;;7.49;55.84;98767.63;123117;1105;104386;-85
2021/03/14 08:02:18;;;;;;;4.30;3.80;;;;;;;7.55;55.46;98771.80;123059;1105;104239;-79
2021/03/14 08:04:50;;;;;;;3.65;3.30;;;;;;;7.61;55.47;98781.28;123173;1105;104287;-81
2021/03/14 08:07:37;;;;;;;5.65;4.65;;;;;;;7.61;54.94;98760.09;123128;1105;104203;-78
2021/03/14 08:10:09;;;;;;;4.70;3.60;;;;;;;7.66;54.40;98758.11;122959;1105;104463;-83
2021/03/14 08:12:40;;;;;;;3.33;3.03;;;;;;;7.68;53.92;98757.13;123064;1105;104306;-82
2021/03/14 08:15:28;;;;;;;5.93;3.50;;;;;;;7.78;53.80;98754.09;123055;1105;104285;-80
2021/03/14 08:18:34;;;;;;;3.83;3.17;;;;;;;7.93;52.90;98750.82;122962;1105;104347;-79
2021/03/14 08:21:01;;;;;;;6.78;3.87;;;;;;;8.01;53.59;98751.35;123064;1105;104402;-80
2021/03/14 08:23:42;;;;;;;4.20;3.60;;;;;;;8.04;52.29;98761.81;123143;1105;104252;-79
2021/03/14 08:26:15;;;;;;;3.80;3.50;;;;;;;8.14;52.04;98767.61;123198;1105;104243;-79
2021/03/14 08:29:04;;;;;;;3.73;3.00;;;;;;;8.18;52.20;98747.98;123107;1105;104794;-79
2021/03/14 08:31:50;;;;;;;6.72;4.30;;;;;;;8.29;52.15;98757.24;123079;1105;104297;-83
2021/03/14 08:34:20;;;;;;;3.42;3.17;;;;;;;8.39;51.84;98742.66;123124;1105;104348;-82
2021/03/14 08:36:47;;;;;;;4.78;3.90;;;;;;;8.43;52.08;98738.94;123163;1105;104296;-80
2021/03/14 08:39:34;;;;;;;6.40;3.75;;;;;;;8.61;51.61;98739.95;123116;1105;104226;-81
2021/03/14 08:42:15;;;;;;;6.37;4.17;;;;;;;8.77;51.36;98740.12;122835;1109;104414;-83
2021/03/14 08:45:18;;;;;;;7.05;4.15;;;;;;;8.85;50.53;98750.36;122818;1109;104517;-81
2021/03/14 08:48:00;;;;;;;7.35;3.62;;;;;;;8.84;50.41;98749.52;122847;1109;104805;-79
2021/03/14 08:50:28;;;;;;;4.27;3.23;;;;;;;8.92;50.34;98766.91;122858;1109;104415;-79
2021/03/14 08:52:56;;;;;;;4.50;4.10;;;;;;;8.93;49.84;98761.52;122838;1109;104387;-79
2021/03/14 08:55:23;;;;;;;4.40;3.23;;;;;;;8.96;50.15;98776.45;122866;1109;104342;-78
2021/03/14 08:57:50;;;;;;;6.13;4.13;;;;;;;8.99;48.99;98765.67;122838;1109;105197;-81
2021/03/14 09:00:16;;;;;;;6.57;3.60;;;;;;;9.17;50.09;98771.91;122849;1109;104904;-81
2021/03/14 09:02:45;;;;;;;4.75;4.22;;;;;;;9.25;49.62;98780.40;122891;1106;104424;-80
2021/03/14 09:05:14;;;;;;;5.47;3.53;;;;;;;9.34;46.69;98774.66;122859;1109;105101;-78
2021/03/14 09:07:41;;;;;;;3.70;3.35;;;;;;;10.59;45.32;98778.23;122687;1108;104406;-81
2021/03/14 09:10:19;;;;;;;3.98;3.05;;;;;;;13.03;41.37;98760.75;122856;1109;104297;-80
2021/03/14 09:12:58;;;;;;;3.90;3.20;;;;;;;13.37;39.29;98764.85;122893;1109;104354;-80
2021/03/14 09:15:24;;;;;;;4.27;2.40;;;;;;;13.29;36.50;98767.13;122802;1109;104239;-81
2021/03/14 09:17:51;;;;;;;2.90;1.90;;;;;;;12.92;36.64;98768.60;122869;1109;104399;-80
2021/03/14 09:20:24;;;;;;;3.60;2.87;;;;;;;12.28;38.56;98777.76;122858;1105;104396;-80
2021/03/14 09:22:51;;;;;;;3.90;1.90;;;;;;;12.02;38.90;98788.17;123064;1105;104172;-81
2021/03/14 09:25:18;;;;;;;3.90;3.00;;;;;;;11.84;38.66;98791.87;123066;1105;104789;-80
2021/03/14 09:27:46;;;;;;;5.17;2.03;;;;;;;11.53;39.11;98790.95;123119;1105;104322;-80
2021/03/14 09:30:14;;;;;;;3.33;2.75;;;;;;;11.29;40.31;98806.48;123048;1105;104986;-84
2021/03/14 09:33:03;;;;;;;3.22;2.20;;;;;;;10.92;40.65;98813.83;123088;1105;104741;-80
2021/03/14 09:35:44;;;;;;;5.33;3.65;;;;;;;10.92;41.61;98811.16;123012;1105;104732;-81
2021/03/14 09:38:26;;;;;;;3.80;2.87;;;;;;;10.79;41.42;98816.27;122755;1109;104705;-79
2021/03/14 09:40:53;;;;;;;6.73;4.23;;;;;;;10.83;42.48;98810.68;122757;1108;104706;-79
2021/03/14 09:43:28;;;;;;;5.10;2.70;;;;;;;10.65;42.39;98816.98;122795;1109;104556;-80
2021/03/14 09:46:03;;;;;;;4.75;3.47;;;;;;;10.41;43.14;98813.78;123079;1109;104338;-81
2021/03/14 09:48:34;;;;;;;4.80;3.37;;;;;;;10.27;43.17;98830.44;123020;1109;104949;-81
2021/03/14 09:51:06;;;;;;;4.20;3.62;;;;;;;10.11;43.53;98831.19;122893;1109;104405;-82
2021/03/14 09:53:35;;;;;;;3.80;2.87;;;;;;;10.00;43.42;98838.86;122883;1108;104367;-82
2021/03/14 09:56:04;;;;;;;2.47;2.10;;;;;;;9.91;43.60;98826.86;122776;1109;105749;-80
2021/03/14 09:58:31;;;;;;;3.57;2.67;;;;;;;9.79;42.95;98838.09;122925;1109;105806;-80
2021/03/14 10:00:59;;;;;;;2.92;2.72;;;;;;;9.64;43.53;98842.36;122831;1109;104210;-81
2021/03/14 10:03:28;;;;;;;7.80;3.77;;;;;;;9.54;43.85;98837.48;122844;1109;104405;-81
2021/03/14 10:05:56;;;;;;;5.17;4.20;;;;;;;9.76;44.25;98840.91;122804;1109;104779;-79
2021/03/14 10:08:26;;;;;;;7.63;4.10;;;;;;;9.83;44.26;98837.86;122839;1106;104476;-80
2021/03/14 10:11:13;;;;;;;4.73;3.83;;;;;;;9.91;44.21;98833.98;122736;1109;104389;-80
2021/03/14 10:13:55;;;;;;;6.17;3.02;;;;;;;10.10;43.67;98831.27;122725;1109;104412;-81
2021/03/14 10:16:39;;;;;;;3.45;3.15;;;;;;;10.27;42.60;98838.41;122646;1109;104444;-80
2021/03/14 10:19:06;;;;;;;8.63;4.50;;;;;;;10.38;43.17;98833.42;122935;1109;105293;-82
2021/03/14 10:21:33;;;;;;;5.17;3.10;;;;;;;10.35;43.37;98836.26;122727;1108;105239;-80
2021/03/14 10:24:19;;;;;;;4.62;3.15;;;;;;;10.20;43.31;98833.39;122778;1109;104398;-81
2021/03/14 10:27:05;;;;;;;5.40;3.30;;;;;;;10.10;44.80;98849.89;122881;1109;104482;-83
2021/03/14 10:29:38;;;;;;;5.03;4.07;;;;;;;10.01;45.02;98854.73;122974;1109;104483;-80
2021/03/14 10:32:19;;;;;;;6.00;3.45;;;;;;;10.03;44.41;98850.18;122817;1109;104407;-80
2021/03/14 10:34:57;;;;;;;3.90;3.50;;;;;;;9.92;44.43;98852.52;122968;1109;104377;-80
2021/03/14 10:37:35;;;;;;;2.40;2.20;;;;;;;9.87;44.40;98863.36;122799;1109;104466;-81
2021/03/14 10:40:11;;;;;;;3.35;3.05;;;;;;;9.92;44.44;98857.84;122766;1109;105205;-80
2021/03/14 10:42:52;;;;;;;4.60;3.70;;;;;;;9.84;45.95;98860.86;122429;1112;104370;-84
2021/03/14 10:45:23;;;;;;;7.50;4.57;;;;;;;9.70;45.32;98853.56;122683;1112;104146;-80
2021/03/14 10:48:09;;;;;;;3.80;3.10;;;;;;;9.76;45.31;98873.67;122736;1112;104438;-81
2021/03/14 10:50:38;;;;;;;5.43;3.43;;;;;;;9.59;45.73;98876.27;122918;1109;104543;-82
2021/03/14 10:53:07;;;;;;;3.80;2.92;;;;;;;9.45;46.26;98867.14;122911;1109;105057;-90
2021/03/14 10:55:35;;;;;;;3.93;3.60;;;;;;;9.36;46.85;98872.87;122994;1106;104367;-82
2021/03/14 10:58:09;;;;;;;3.47;3.08;;;;;;;9.36;46.47;98873.73;122925;1109;104536;-83
2021/03/14 11:00:37;;;;;;;4.28;3.52;;;;;;;9.48;47.07;98866.99;122653;1109;104543;-78
2021/03/14 11:03:36;;;;;;;4.30;3.85;;;;;;;9.66;46.45;98872.37;122617;1107;104332;-81
2021/03/14 11:06:11;;;;;;;4.83;3.80;;;;;;;9.75;46.47;98873.74;122595;1109;104296;-81
2021/03/14 11:08:57;;;;;;;4.22;3.27;;;;;;;9.79;46.63;98881.48;122552;1108;104354;-81
2021/03/14 11:11:38;;;;;;;7.23;3.67;;;;;;;9.91;46.29;98885.36;122640;1109;104417;-82
2021/03/14 11:14:31;;;;;;;4.30;3.60;;;;;;;10.12;46.12;98895.91;122664;1108;104389;-80
2021/03/14 11:17:19;;;;;;;8.13;4.65;;;;;;;10.17;46.19;98889.42;122655;1109;104426;-83
2021/03/14 11:19:49;;;;;;;6.40;4.63;;;;;;;10.10;45.86;98898.62;122536;1109;104385;-80
2021/03/14 11:22:18;;;;;;;6.17;4.43;;;;;;;9.98;46.62;98905.42;122951;1105;104373;-85
2021/03/14 11:24:45;;;;;;;5.50;4.10;;;;;;;9.98;47.59;98902.77;122901;1105;104194;-87
2021/03/14 11:27:13;;;;;;;4.60;3.90;;;;;;;9.96;46.96;98901.96;122818;1105;104694;-80
2021/03/14 11:29:42;;;;;;;4.55;4.10;;;;;;;9.80;47.23;98908.95;122881;1105;104225;-81
2021/03/14 11:32:11;;;;;;;4.80;3.20;;;;;;;9.71;47.02;98915.55;123368;1105;104987;-80
2021/03/14 11:34:44;;;;;;;4.23;3.70;;;;;;;9.63;47.41;98913.25;123285;1105;104297;-79
2021/03/14 11:37:13;;;;;;;4.90;3.58;;;;;;;9.50;47.66;98915.62;123365;1105;104274;-83
2021/03/14 11:39:42;;;;;;;4.97;4.20;;;;;;;9.33;48.21;98919.05;123215;1105;104354;-80
2021/03/14 11:42:10;;;;;;;4.47;3.90;;;;;;;9.17;47.36;98908.25;123278;1105;104342;-83
2021/03/14 11:44:37;;;;;;;4.37;3.83;;;;;;;9.07;48.61;98929.97;123558;1105;104248;-83
2021/03/14 11:47:04;;;;;;;4.30;3.43;;;;;;;8.94;48.64;98932.29;123258;1105;104255;-82